Portada
METAR-TAF:

METAR-TAF

Aeroports :

Aeroport de Brussel·les

Brussel·les, Bèlgica

latitud: 50-54N, longitud: 004-32E, altitud: 55 m

Observació

L'informe es va fer fa 23 minuts, a les 07:50 UTC
Vent 7 kt del Oest/Sud-Oest
Temperatura 16°C
Humitat 82%
Pressió 1023 hPa
Visibilitat 10 km o més
sense núvols per sota de 1500 mi sense presència de cumulonimbus.

METAR: EBBR 180750Z 24007KT CAVOK 16/13 Q1023 NOSIG

Hora: 10:13 (08:13 UTC)

Pronòstic

L'informe es va fer fa 3 hores i 13 minuts, a les 05:00 UTC
Pronòstic vàlid del 18 a les 06 UTC al 19 a les 12 UTC
Vent 6 kt del Oest/Sud-Oest
Visibilitat 10 km o més
Núvols disperses a una alçada de 2500 ft

TAF: EBBR 180500Z 1806/1912 24006KT 9999 SCT025

Observacions i pronòstics meteorològics de més de 4000 aeroports (METAR i TAF).

Les estacions disponibles són els punts grocs i vermells al mapa.

Posi el ratolí al punt desitjat per veure el nom de l'estació.

Feu clic per veure les observacions i els pronòstics meteorològics.

Per canviar el mapa: feu clic els botons verds amb una creu de color negre per apropar; al botó verd amb un guió per allunyar la imatge; o en les fletxes verdes per a mapes adjacents.


METAR-TAF: